Time;durP1;ratioP1;P1;durP2;ratioP2;P2;SDS_P1;SDS_P2;PMS_P1;PMS_P2;Temp;Humidity;BMP_temperature;BMP_pressure;BME280_temperature;BME280_humidity;BME280_pressure;Samples;Min_cycle;Max_cycle;Signal;HPM_P1;HPM_P2
2022/12/01 00:01:27;;;;;;;231.93;59.53;;;2.20;99.90;;;0.36;100.00;102538.84;5027732;28;21204;-82
2022/12/01 00:03:53;;;;;;;253.00;61.80;;;2.20;99.90;;;0.46;100.00;102539.97;5026830;28;20044;-83
2022/12/01 00:06:27;;;;;;;245.52;63.40;;;2.20;99.90;;;0.51;100.00;102542.66;5012924;28;20490;-84
2022/12/01 00:11:38;;;;;;;265.08;63.72;;;2.20;99.90;;;0.50;100.00;102535.72;5057709;28;20125;-83
2022/12/01 00:14:10;;;;;;;265.50;59.15;;;2.20;99.90;;;0.39;100.00;102532.88;5049306;28;20068;-82
2022/12/01 00:16:39;;;;;;;264.50;65.40;;;2.20;99.90;;;0.44;100.00;102533.88;5044914;28;20541;-83
2022/12/01 00:19:04;;;;;;;254.50;55.60;;;2.20;99.90;;;0.34;100.00;102540.53;5049631;28;20030;-83
2022/12/01 00:21:30;;;;;;;277.55;63.65;;;2.20;99.90;;;0.42;100.00;102543.31;5033978;28;20064;-84
2022/12/01 00:24:04;;;;;;;268.73;62.38;;;2.20;99.90;;;0.43;100.00;102536.41;5032194;28;20029;-83
2022/12/01 00:26:30;;;;;;;278.38;64.40;;;2.20;99.90;;;0.42;100.00;102534.66;5035156;28;20425;-82
2022/12/01 00:28:58;;;;;;;278.92;64.80;;;2.20;99.90;;;0.47;100.00;102525.28;5031946;28;20081;-83
2022/12/01 00:31:28;;;;;;;286.23;64.53;;;2.10;99.90;;;0.30;100.00;102527.47;5037449;28;20026;-81
2022/12/01 00:33:55;;;;;;;279.10;64.57;;;2.10;99.90;;;0.35;100.00;102536.25;5050816;28;20025;-83
2022/12/01 00:36:21;;;;;;;265.35;63.22;;;2.10;99.90;;;0.26;100.00;102533.41;5016470;28;20041;-83
2022/12/01 00:38:50;;;;;;;266.30;64.78;;;2.10;99.90;;;0.33;100.00;102531.00;5030764;28;20025;-82
2022/12/01 00:41:21;;;;;;;256.38;62.50;;;2.10;99.90;;;0.28;100.00;102529.13;5045287;28;20029;-82
2022/12/01 00:43:47;;;;;;;248.45;63.95;;;2.10;99.90;;;0.35;100.00;102534.50;5011461;28;20107;-82
2022/12/01 00:46:13;;;;;;;239.77;62.83;;;2.20;99.90;;;0.43;100.00;102539.88;5039675;28;20029;-84
2022/12/01 00:48:38;;;;;;;236.07;62.20;;;2.20;99.90;;;0.40;100.00;102542.41;5030510;28;20283;-83
2022/12/01 00:51:04;;;;;;;239.40;63.75;;;2.10;99.90;;;0.37;100.00;102542.34;5029786;28;20068;-83
2022/12/01 00:53:31;;;;;;;244.07;61.72;;;2.20;99.90;;;0.50;100.00;102546.09;5031022;28;20040;-83
2022/12/01 00:56:04;;;;;;;227.15;61.13;;;2.20;99.90;;;0.50;100.00;102546.97;5051324;28;20033;-83
2022/12/01 00:58:30;;;;;;;219.98;60.70;;;2.20;99.90;;;0.54;100.00;102556.56;5061207;28;20034;-83
2022/12/01 01:01:08;;;;;;;247.13;62.90;;;2.20;99.90;;;0.43;100.00;102550.22;5033669;28;20470;-82
2022/12/01 01:03:34;;;;;;;231.30;61.97;;;2.10;99.90;;;0.39;100.00;102551.91;5047686;23;20056;-84
2022/12/01 01:06:11;;;;;;;238.77;64.00;;;2.10;99.90;;;0.31;100.00;102545.63;5032888;28;20025;-85
2022/12/01 01:08:37;;;;;;;243.15;65.18;;;2.10;99.90;;;0.18;100.00;102553.94;5036770;28;20021;-85
2022/12/01 01:11:07;;;;;;;230.48;62.75;;;2.10;99.90;;;0.27;100.00;102549.00;5030317;28;20021;-85
2022/12/01 01:13:40;;;;;;;231.40;61.60;;;2.10;99.90;;;0.25;100.00;102548.06;5032726;28;20390;-85
2022/12/01 01:16:19;;;;;;;230.07;61.90;;;2.10;99.90;;;0.33;100.00;102553.47;5037024;28;20116;-85
2022/12/01 01:18:46;;;;;;;235.75;62.60;;;2.10;99.90;;;0.36;100.00;102553.53;5028381;28;20053;-84
2022/12/01 01:21:23;;;;;;;210.93;57.53;;;2.00;99.90;;;0.17;100.00;102549.59;5027472;28;20026;-85
2022/12/01 01:23:51;;;;;;;184.05;53.65;;;2.00;99.90;;;0.24;100.00;102548.03;5024698;28;20025;-84
2022/12/01 01:26:26;;;;;;;175.00;53.50;;;2.00;99.90;;;0.24;100.00;102548.94;5027794;28;20433;-85
2022/12/01 01:28:58;;;;;;;192.45;55.90;;;2.00;99.90;;;0.30;100.00;102553.38;5022265;28;20030;-85
2022/12/01 01:31:29;;;;;;;178.73;52.47;;;2.10;99.90;;;0.32;100.00;102546.50;5024659;28;20065;-85
2022/12/01 01:33:56;;;;;;;189.32;55.00;;;2.10;99.90;;;0.37;100.00;102547.53;5025241;28;20024;-85
2022/12/01 01:36:23;;;;;;;177.27;52.97;;;2.00;99.90;;;0.22;100.00;102548.00;5041140;28;20044;-85
2022/12/01 01:38:50;;;;;;;189.00;54.40;;;2.00;99.90;;;0.28;100.00;102549.84;5041411;28;20714;-86
2022/12/01 01:41:19;;;;;;;183.63;54.70;;;2.00;99.90;;;0.20;100.00;102553.16;5012439;28;20448;-83
2022/12/01 01:44:00;;;;;;;198.95;56.70;;;2.00;99.90;;;0.29;100.00;102551.63;5022542;28;20540;-85
2022/12/01 01:46:33;;;;;;;179.48;50.88;;;2.10;99.90;;;0.26;100.00;102551.53;5026217;28;20053;-84
2022/12/01 01:49:09;;;;;;;180.82;52.13;;;2.10;99.90;;;0.27;100.00;102550.72;5026560;28;20036;-85
2022/12/01 01:51:46;;;;;;;186.43;54.40;;;2.00;99.90;;;0.29;100.00;102552.50;5029587;28;20104;-85
2022/12/01 01:54:31;;;;;;;192.63;55.28;;;2.10;99.90;;;0.37;100.00;102555.28;5040486;28;20513;-85
2022/12/01 01:57:08;;;;;;;185.13;52.83;;;2.10;99.90;;;0.30;100.00;102555.97;5031725;28;20033;-85
2022/12/01 01:59:48;;;;;;;192.80;53.30;;;2.10;99.90;;;0.33;100.00;102546.56;5010225;28;20040;-83
2022/12/01 02:02:17;;;;;;;186.70;53.70;;;2.10;99.90;;;0.35;100.00;102550.06;5041296;28;20552;-85
2022/12/01 02:04:52;;;;;;;207.50;56.25;;;2.10;99.90;;;0.42;100.00;102552.81;5024336;28;20037;-83
2022/12/01 02:07:19;;;;;;;214.38;57.03;;;2.10;99.90;;;0.34;100.00;102547.41;5036259;28;20032;-84
2022/12/01 02:09:52;;;;;;;202.50;54.33;;;2.10;99.90;;;0.39;100.00;102554.50;5024550;28;20026;-85
2022/12/01 02:12:39;;;;;;;203.38;55.63;;;2.10;99.90;;;0.42;100.00;102547.63;5041842;28;20029;-85
2022/12/01 02:15:14;;;;;;;191.65;52.78;;;2.10;99.90;;;0.40;100.00;102550.16;5021212;28;20029;-85
2022/12/01 02:17:54;;;;;;;203.10;54.83;;;2.10;99.90;;;0.44;100.00;102552.00;5024733;28;20033;-83
2022/12/01 02:20:48;;;;;;;192.43;54.15;;;2.10;99.90;;;0.30;100.00;102555.97;5025257;28;20489;-83
2022/12/01 02:23:48;;;;;;;194.85;55.00;;;2.10;99.90;;;0.28;100.00;102552.44;5020872;28;20044;-85
2022/12/01 02:26:41;;;;;;;181.95;50.30;;;2.00;99.90;;;0.16;100.00;102550.44;5024285;28;20575;-84
2022/12/01 02:29:23;;;;;;;196.32;52.20;;;2.00;99.90;;;0.33;100.00;102558.66;5018247;28;20670;-85
2022/12/01 02:32:22;;;;;;;184.55;53.53;;;2.00;99.90;;;0.19;100.00;102555.69;5023607;28;20034;-85
2022/12/01 02:35:00;;;;;;;202.25;54.67;;;2.00;99.90;;;0.22;100.00;102555.78;5036039;28;20044;-85
2022/12/01 02:38:12;;;;;;;195.88;55.42;;;2.00;99.90;;;0.32;100.00;102554.28;5025552;28;20089;-85
2022/12/01 02:41:19;;;;;;;201.73;53.63;;;2.00;99.90;;;0.23;100.00;102556.66;5014858;28;20057;-85
2022/12/01 02:44:26;;;;;;;197.52;53.25;;;2.00;99.90;;;0.30;100.00;102558.53;5021146;28;20041;-85
2022/12/01 02:47:16;;;;;;;191.75;52.75;;;2.00;99.90;;;0.36;100.00;102558.72;5022149;28;20045;-83
2022/12/01 02:49:49;;;;;;;195.77;52.78;;;2.00;99.90;;;0.29;100.00;102556.81;5009312;28;20033;-85
2022/12/01 02:52:20;;;;;;;204.93;53.97;;;2.00;99.90;;;0.30;100.00;102550.78;5024361;28;20128;-85
2022/12/01 02:54:49;;;;;;;213.40;55.88;;;2.00;99.90;;;0.31;100.00;102544.78;5028537;28;20064;-85
2022/12/01 02:57:21;;;;;;;209.52;56.17;;;2.10;99.90;;;0.36;100.00;102553.53;5025656;28;20029;-85
2022/12/01 02:59:53;;;;;;;200.60;55.20;;;2.10;99.90;;;0.42;100.00;102553.69;5026432;28;20029;-85
2022/12/01 03:02:26;;;;;;;198.10;53.97;;;2.10;99.90;;;0.40;100.00;102545.84;5023348;28;20124;-85
2022/12/01 03:05:10;;;;;;;215.85;54.83;;;2.10;99.90;;;0.40;100.00;102545.84;5042464;28;20025;-85
2022/12/01 03:07:55;;;;;;;197.15;55.60;;;2.10;99.90;;;0.45;100.00;102547.69;5040199;28;20033;-84
2022/12/01 03:10:30;;;;;;;204.93;55.63;;;2.20;99.90;;;0.50;100.00;102546.97;5027353;28;20056;-83
2022/12/01 03:13:41;;;;;;;201.40;56.30;;;2.20;99.90;;;0.54;100.00;102545.31;5023521;28;20026;-85
2022/12/01 03:16:26;;;;;;;204.85;55.70;;;2.20;99.90;;;0.43;100.00;102549.38;5018718;28;20556;-85
2022/12/01 03:19:06;;;;;;;190.23;53.45;;;2.10;99.90;;;0.38;100.00;102536.31;5022002;28;20110;-84
2022/12/01 03:21:57;;;;;;;200.75;56.22;;;2.20;99.90;;;0.45;100.00;102553.75;5024895;28;20513;-83
2022/12/01 03:24:28;;;;;;;203.05;54.78;;;2.20;99.90;;;0.48;100.00;102552.97;5005063;28;20030;-84
2022/12/01 03:27:01;;;;;;;198.55;55.40;;;2.20;99.90;;;0.52;100.00;102549.59;5005011;28;20076;-84
2022/12/01 03:29:40;;;;;;;193.82;54.25;;;2.20;99.90;;;0.47;100.00;102552.06;5007469;28;20034;-84
2022/12/01 03:32:30;;;;;;;185.98;51.65;;;2.20;99.90;;;0.43;100.00;102554.53;5019667;28;20029;-85
2022/12/01 03:35:04;;;;;;;184.35;52.03;;;2.20;99.90;;;0.45;100.00;102551.16;5038871;28;20021;-84
2022/12/01 03:37:37;;;;;;;204.95;55.75;;;2.20;99.90;;;0.42;100.00;102556.28;5022659;28;20477;-84
2022/12/01 03:40:09;;;;;;;213.02;59.83;;;2.20;99.90;;;0.46;100.00;102552.06;5023376;28;20041;-85
2022/12/01 03:42:42;;;;;;;205.80;60.28;;;2.20;99.90;;;0.46;100.00;102546.88;5007971;28;20481;-84
2022/12/01 03:45:22;;;;;;;191.82;49.03;;;2.10;99.90;;;0.32;100.00;102546.50;5026839;28;20025;-85
2022/12/01 03:47:47;;;;;;;200.27;56.22;;;2.10;99.90;;;0.39;100.00;102546.72;5028994;28;20081;-85
2022/12/01 03:50:15;;;;;;;211.20;55.97;;;2.10;99.90;;;0.29;100.00;102546.44;5023470;28;20376;-85
2022/12/01 03:53:06;;;;;;;201.35;57.85;;;2.10;99.90;;;0.30;100.00;102546.50;5007770;28;20037;-83
2022/12/01 03:55:44;;;;;;;220.02;58.95;;;2.10;99.90;;;0.36;100.00;102549.22;5025695;28;20018;-83
2022/12/01 03:58:27;;;;;;;220.00;57.75;;;2.10;99.90;;;0.41;100.00;102549.31;5022832;28;20056;-85
2022/12/01 04:00:56;;;;;;;224.05;58.15;;;2.10;99.90;;;0.51;100.00;102543.53;5024576;28;20107;-83
2022/12/01 04:03:28;;;;;;;213.13;58.60;;;2.20;99.90;;;0.50;100.00;102546.97;5020693;28;20026;-82
2022/12/01 04:05:54;;;;;;;226.95;59.42;;;2.20;99.90;;;0.63;100.00;102552.44;5022788;28;20116;-84
2022/12/01 04:08:20;;;;;;;201.18;56.15;;;2.20;99.90;;;0.67;100.00;102542.19;5020968;28;20044;-84
2022/12/01 04:10:46;;;;;;;213.98;61.25;;;2.30;99.90;;;0.66;100.00;102547.34;5022511;28;20037;-85
2022/12/01 04:13:21;;;;;;;214.30;61.70;;;2.30;99.90;;;0.64;100.00;102549.00;5021302;28;20018;-84
2022/12/01 04:15:52;;;;;;;200.27;57.00;;;2.30;99.90;;;0.66;100.00;102543.00;5021426;28;20682;-84
2022/12/01 04:18:26;;;;;;;195.27;56.88;;;2.30;99.90;;;0.66;100.00;102547.34;5003589;28;20048;-85
2022/12/01 04:20:52;;;;;;;180.35;49.03;;;2.30;99.90;;;0.45;100.00;102543.38;5025572;28;20026;-83
2022/12/01 04:26:08;;;;;;;192.73;54.95;;;2.20;99.90;;;0.51;100.00;102551.31;5036978;28;20052;-83
2022/12/01 04:28:34;;;;;;;221.15;59.78;;;2.20;99.90;;;0.42;100.00;102542.44;5020576;28;20038;-85
2022/12/01 04:31:00;;;;;;;215.95;60.58;;;2.20;99.90;;;0.48;100.00;102547.78;5003019;28;20172;-82
2022/12/01 04:33:27;;;;;;;210.25;62.17;;;2.20;99.90;;;0.45;100.00;102548.56;5019007;28;20121;-85
2022/12/01 04:36:00;;;;;;;221.18;60.50;;;2.20;99.90;;;0.46;100.00;102549.47;5020505;28;20030;-83
2022/12/01 04:38:27;;;;;;;218.02;58.88;;;2.20;99.90;;;0.48;100.00;102552.97;5054768;28;20041;-85
2022/12/01 04:40:53;;;;;;;218.93;61.80;;;;;;;0.39;100.00;102548.44;5022458;28;20111;-83
2022/12/01 04:43:19;;;;;;;196.65;55.13;;;2.20;99.90;;;0.35;100.00;102547.47;5017392;28;20070;-84
2022/12/01 04:45:45;;;;;;;208.57;62.38;;;2.10;99.90;;;0.33;100.00;102553.47;5023006;28;20022;-85
2022/12/01 04:48:10;;;;;;;212.13;61.33;;;2.10;99.90;;;0.39;100.00;102551.91;5027612;28;20030;-85
2022/12/01 04:50:44;;;;;;;206.88;60.53;;;2.10;99.90;;;0.45;100.00;102558.94;5027167;28;20123;-83
2022/12/01 04:53:10;;;;;;;190.70;57.30;;;2.10;99.90;;;0.35;100.00;102555.25;5025807;28;20457;-85
2022/12/01 04:55:39;;;;;;;192.93;57.50;;;2.10;99.90;;;0.35;100.00;102551.78;5013775;28;20109;-85
2022/12/01 04:58:05;;;;;;;196.25;61.05;;;;;;;0.46;100.00;102558.09;5011782;28;20504;-85
2022/12/01 05:00:32;;;;;;;199.52;57.28;;;2.10;99.90;;;0.37;100.00;102555.28;5025684;28;20030;-85
2022/12/01 05:02:59;;;;;;;197.27;54.72;;;2.20;99.90;;;0.40;100.00;102565.72;5025994;28;20038;-85
2022/12/01 05:05:25;;;;;;;202.52;62.33;;;2.10;99.90;;;0.45;100.00;102563.25;5045872;28;20556;-85
2022/12/01 05:07:50;;;;;;;216.43;64.22;;;2.10;99.90;;;0.37;100.00;102561.34;5029464;28;20038;-85
2022/12/01 05:10:17;;;;;;;219.60;60.65;;;2.10;99.90;;;0.26;100.00;102567.06;5038832;28;20033;-84
2022/12/01 05:12:49;;;;;;;188.35;59.22;;;2.10;99.90;;;0.37;100.00;102568.25;5043363;28;20037;-84
2022/12/01 05:15:16;;;;;;;213.07;61.65;;;2.10;99.90;;;0.39;100.00;102570.03;5059403;28;20038;-85
2022/12/01 05:17:43;;;;;;;211.15;61.97;;;2.10;99.90;;;0.39;100.00;102563.97;5018854;28;20406;-85
2022/12/01 05:23:07;;;;;;;196.75;60.13;;;2.10;99.90;;;0.39;100.00;102562.25;5026694;28;20044;-84
2022/12/01 05:25:42;;;;;;;209.60;59.63;;;2.20;99.90;;;0.49;100.00;102565.06;5010531;28;20033;-84
2022/12/01 05:28:08;;;;;;;191.95;58.63;;;2.20;99.90;;;0.48;100.00;102560.75;5026779;28;20056;-84
2022/12/01 05:30:33;;;;;;;196.45;56.65;;;2.20;99.90;;;0.47;100.00;102570.22;5028699;28;20037;-85
2022/12/01 05:33:02;;;;;;;206.68;59.67;;;2.20;99.90;;;0.54;100.00;102568.63;5026063;28;20018;-84
2022/12/01 05:35:33;;;;;;;199.52;60.17;;;2.20;99.90;;;0.61;100.00;102573.16;5026557;28;20033;-85
2022/12/01 05:37:59;;;;;;;188.70;58.50;;;2.30;99.90;;;0.53;100.00;102572.09;5029741;28;20490;-85
2022/12/01 05:40:25;;;;;;;205.63;62.17;;;2.20;99.90;;;0.58;100.00;102567.88;5024057;28;20048;-85
2022/12/01 05:43:00;;;;;;;190.43;59.20;;;2.30;99.90;;;0.63;100.00;102581.84;5042732;28;20029;-85
2022/12/01 05:45:26;;;;;;;196.40;62.35;;;2.30;99.90;;;0.67;100.00;102573.31;5024144;28;20041;-85
2022/12/01 05:48:01;;;;;;;192.73;60.15;;;2.30;99.90;;;0.59;100.00;102573.09;5043264;28;20045;-84
2022/12/01 05:50:29;;;;;;;205.48;61.38;;;2.30;99.90;;;0.67;100.00;102577.59;5009670;28;20088;-85
2022/12/01 05:52:55;;;;;;;206.30;64.63;;;2.30;99.90;;;0.68;100.00;102582.81;5023701;28;20022;-85
2022/12/01 05:55:21;;;;;;;197.88;61.00;;;2.40;99.90;;;0.72;100.00;102584.66;5028057;28;20049;-85
2022/12/01 05:57:51;;;;;;;212.85;66.43;;;2.40;99.90;;;0.75;100.00;102582.13;5025841;28;20044;-85
2022/12/01 06:00:18;;;;;;;210.68;64.50;;;2.30;99.90;;;0.61;100.00;102583.53;5041017;28;20080;-84
2022/12/01 06:02:47;;;;;;;298.98;99.07;;;2.30;99.90;;;0.69;100.00;102588.88;5023533;28;20030;-84
2022/12/01 06:05:12;;;;;;;234.93;73.88;;;2.40;99.90;;;0.69;100.00;102589.78;5008593;28;20072;-84
2022/12/01 06:07:39;;;;;;;257.70;82.28;;;2.40;99.90;;;0.70;100.00;102590.66;5010763;28;20041;-84
2022/12/01 06:10:09;;;;;;;227.43;74.35;;;2.40;99.90;;;0.72;100.00;102588.97;5024740;28;20125;-84
2022/12/01 06:12:36;;;;;;;277.70;91.88;;;2.40;99.90;;;0.74;100.00;102601.13;5019036;28;20021;-83
2022/12/01 06:15:05;;;;;;;234.00;74.78;;;2.40;99.90;;;0.65;100.00;102597.41;5024899;28;20036;-84
2022/12/01 06:17:31;;;;;;;231.98;66.25;;;2.30;99.90;;;0.56;100.00;102596.38;5026256;28;20574;-84
2022/12/01 06:20:02;;;;;;;208.43;62.67;;;2.30;99.90;;;0.57;100.00;102594.66;5043610;28;20253;-85
2022/12/01 06:22:28;;;;;;;244.27;77.60;;;2.30;99.90;;;0.69;100.00;102599.25;5026510;28;20347;-85
2022/12/01 06:24:53;;;;;;;218.48;68.07;;;2.30;99.90;;;0.72;100.00;102602.81;5024051;28;20025;-84
2022/12/01 06:27:19;;;;;;;207.15;65.93;;;2.40;99.90;;;0.77;100.00;102610.69;5025135;28;20051;-84
2022/12/01 06:29:45;;;;;;;215.13;64.28;;;2.30;99.90;;;0.72;100.00;102605.41;5008451;28;20108;-85
2022/12/01 06:32:11;;;;;;;196.23;60.65;;;2.60;99.90;;;0.68;100.00;102603.56;5007209;28;20494;-84
2022/12/01 06:34:42;;;;;;;199.65;63.08;;;2.30;99.90;;;0.70;100.00;102603.63;5010579;28;20216;-84
2022/12/01 06:37:09;;;;;;;198.02;59.88;;;2.40;99.90;;;0.68;100.00;102602.69;5032520;28;20033;-84
2022/12/01 06:39:35;;;;;;;198.18;61.00;;;2.30;99.90;;;0.68;100.00;102605.28;5026723;28;20071;-85
2022/12/01 06:42:01;;;;;;;201.65;60.25;;;2.40;99.90;;;0.71;100.00;102598.44;5004901;28;20034;-82
2022/12/01 06:44:27;;;;;;;200.40;61.22;;;2.30;99.90;;;0.68;100.00;102592.31;5023973;28;20036;-85
2022/12/01 06:47:00;;;;;;;178.82;56.22;;;2.30;99.90;;;0.51;100.00;102602.28;5021857;28;20033;-83
2022/12/01 06:49:25;;;;;;;189.63;61.17;;;2.30;99.90;;;0.64;100.00;102600.88;5035503;28;20036;-84
2022/12/01 06:51:51;;;;;;;188.52;56.38;;;2.30;99.90;;;0.57;100.00;102605.91;5023912;28;20659;-84
2022/12/01 06:54:17;;;;;;;196.35;63.83;;;2.30;99.90;;;0.67;100.00;102606.09;5027121;28;20149;-84
2022/12/01 06:56:49;;;;;;;184.82;58.58;;;2.30;99.90;;;0.56;100.00;102608.44;5011866;28;20163;-82
2022/12/01 06:59:15;;;;;;;202.30;62.88;;;2.30;99.90;;;0.62;100.00;102608.59;5021582;28;20043;-84
2022/12/01 07:01:41;;;;;;;191.73;61.83;;;2.30;99.90;;;0.68;100.00;102615.66;5022980;28;20485;-81
2022/12/01 07:04:06;;;;;;;207.60;62.20;;;2.40;99.90;;;0.73;100.00;102619.22;5042143;28;20108;-84
2022/12/01 07:06:32;;;;;;;203.52;64.82;;;2.40;99.90;;;0.73;100.00;102619.22;5037736;28;20758;-83
2022/12/01 07:08:58;;;;;;;183.55;60.60;;;2.40;99.90;;;0.67;100.00;102616.47;5024544;28;20034;-84
2022/12/01 07:11:24;;;;;;;188.48;62.97;;;2.30;99.90;;;0.68;100.00;102623.44;5009844;28;20033;-84
2022/12/01 07:13:58;;;;;;;188.63;60.58;;;2.40;99.90;;;0.76;100.00;102624.50;5040030;28;20438;-84
2022/12/01 07:16:24;;;;;;;186.80;61.90;;;2.30;99.90;;;0.59;100.00;102613.72;5022706;28;20030;-84
2022/12/01 07:18:51;;;;;;;186.52;56.70;;;2.30;99.90;;;0.67;100.00;102614.78;5017015;28;20467;-81
2022/12/01 07:21:17;;;;;;;184.23;59.75;;;2.30;99.90;;;0.69;100.00;102617.41;5039274;28;20033;-84
2022/12/01 07:23:43;;;;;;;189.60;62.10;;;2.40;99.90;;;0.71;100.00;102623.50;5019435;28;20088;-83
2022/12/01 07:26:17;;;;;;;188.73;61.55;;;2.30;99.90;;;0.70;100.00;102621.75;5023086;28;20506;-84
2022/12/01 07:28:44;;;;;;;178.15;60.08;;;2.40;99.90;;;0.71;100.00;102619.19;5032083;28;20060;-84
2022/12/01 07:31:19;;;;;;;181.80;61.90;;;2.40;99.90;;;0.61;100.00;102620.69;5037574;28;20025;-84
2022/12/01 07:33:48;;;;;;;191.75;61.88;;;2.30;99.90;;;0.59;100.00;102617.19;5008970;28;20018;-84
2022/12/01 07:36:14;;;;;;;176.68;57.25;;;2.30;99.90;;;0.50;100.00;102618.69;5005417;28;20171;-83
2022/12/01 07:38:41;;;;;;;178.52;57.92;;;2.30;99.90;;;0.50;100.00;102622.16;5023427;28;20058;-82
2022/12/01 07:41:18;;;;;;;183.05;59.78;;;2.30;99.90;;;0.56;100.00;102624.91;5007220;28;20030;-84
2022/12/01 07:43:47;;;;;;;175.55;60.78;;;2.30;99.90;;;0.49;100.00;102627.28;5021598;28;20062;-82
2022/12/01 07:46:23;;;;;;;170.25;61.92;;;2.30;99.90;;;0.56;100.00;102629.19;5021899;28;20026;-83
2022/12/01 07:49:00;;;;;;;;;;;;;;;;;;;;;
2022/12/01 07:51:26;;;;;;;164.48;61.80;;;2.30;99.90;;;0.60;100.00;102629.31;5035484;28;20036;-84
2022/12/01 07:53:53;;;;;;;155.73;56.90;;;2.30;99.90;;;0.40;100.00;102625.34;5017930;28;20378;-82
2022/12/01 07:56:23;;;;;;;170.80;61.50;;;2.30;99.90;;;0.53;100.00;102631.72;5021263;28;20526;-83
2022/12/01 07:58:49;;;;;;;163.77;60.85;;;2.30;99.90;;;0.56;100.00;102634.38;5019271;28;20076;-84
2022/12/01 08:03:58;;;;;;;172.15;61.65;;;2.30;99.90;;;0.68;100.00;102650.25;5052925;28;20052;-86
2022/12/01 08:06:32;;;;;;;157.32;57.20;;;2.40;99.90;;;0.67;100.00;102645.91;5041799;28;20028;-87
2022/12/01 08:08:58;;;;;;;157.57;56.70;;;2.30;99.90;;;0.53;100.00;102650.72;5051337;28;20021;-86
2022/12/01 08:11:28;;;;;;;159.20;57.33;;;2.30;99.90;;;0.48;100.00;102647.16;5037770;28;20073;-86
2022/12/01 08:14:05;;;;;;;164.18;56.83;;;2.20;99.90;;;0.52;100.00;102646.38;5035831;28;20029;-84
2022/12/01 08:16:31;;;;;;;153.30;54.78;;;2.30;99.90;;;0.59;100.00;102655.19;5032975;28;20500;-84
2022/12/01 08:19:02;;;;;;;132.10;52.65;;;2.30;99.90;;;0.50;100.00;102652.38;5026332;28;20087;-86
2022/12/01 08:21:28;;;;;;;146.65;55.40;;;2.30;99.90;;;0.54;100.00;102657.69;5066980;28;20025;-87
2022/12/01 08:23:56;;;;;;;163.43;59.85;;;2.30;99.90;;;0.58;100.00;102656.91;5074749;28;20029;-84
2022/12/01 08:26:24;;;;;;;147.73;57.70;;;2.30;99.90;;;0.52;100.00;102654.16;5045889;28;20026;-86
2022/12/01 08:28:50;;;;;;;151.90;56.45;;;2.30;99.90;;;0.59;100.00;102648.28;5061305;28;20049;-89
2022/12/01 08:31:25;;;;;;;150.48;56.88;;;2.30;99.90;;;0.64;100.00;102657.91;5086999;23;20052;-85
2022/12/01 08:33:51;;;;;;;147.50;55.15;;;2.30;99.90;;;0.63;100.00;102650.94;5032940;28;20050;-84
2022/12/01 08:36:19;;;;;;;140.45;54.05;;;2.30;99.90;;;0.53;100.00;102648.13;5044265;28;20025;-85
2022/12/01 08:38:51;;;;;;;146.95;55.50;;;2.30;99.90;;;0.56;100.00;102656.00;5031533;28;20732;-85
2022/12/01 08:41:18;;;;;;;140.55;54.80;;;2.30;99.90;;;0.69;100.00;102652.00;5029943;28;20032;-85
2022/12/01 08:43:44;;;;;;;142.25;53.67;;;2.40;99.90;;;0.72;100.00;102653.78;5055445;28;20136;-85
2022/12/01 08:46:11;;;;;;;154.50;54.65;;;2.40;99.90;;;0.72;100.00;102658.97;5041119;28;20029;-84
2022/12/01 08:48:45;;;;;;;150.40;54.05;;;2.40;99.90;;;0.71;100.00;102659.81;5057922;28;20025;-85
2022/12/01 08:51:15;;;;;;;150.88;55.15;;;2.30;99.90;;;0.55;100.00;102659.41;5056975;28;20033;-84
2022/12/01 08:53:49;;;;;;;146.57;51.90;;;2.30;99.90;;;0.58;100.00;102659.50;5053528;28;20041;-83
2022/12/01 08:56:28;;;;;;;141.77;50.47;;;2.30;99.90;;;0.47;100.00;102666.09;5043267;28;20040;-85
2022/12/01 08:58:55;;;;;;;157.20;57.15;;;2.30;99.90;;;0.57;100.00;102667.25;5052027;28;20040;-84
2022/12/01 09:01:21;;;;;;;153.32;56.38;;;2.30;99.90;;;0.68;100.00;102667.50;5026353;28;20053;-85
2022/12/01 09:04:06;;;;;;;154.02;57.50;;;2.40;99.90;;;0.71;100.00;102667.59;5043806;28;20387;-84
2022/12/01 09:06:39;;;;;;;157.57;57.33;;;2.40;99.90;;;0.74;100.00;102662.50;5038790;28;20108;-84
2022/12/01 09:09:09;;;;;;;157.50;59.53;;;2.40;99.90;;;0.73;100.00;102673.69;5033188;28;20040;-85
2022/12/01 09:11:57;;;;;;;;;;;;;;;;;;;;;
2022/12/01 09:15:11;;;;;;;160.18;58.78;;;2.40;99.90;;;0.74;100.00;102670.28;5047174;28;20089;-85
2022/12/01 09:17:39;;;;;;;133.85;49.05;;;2.40;99.90;;;0.52;100.00;102669.72;5036217;28;20040;-84
2022/12/01 09:20:15;;;;;;;141.38;56.97;;;2.30;99.90;;;0.58;100.00;102667.28;5037576;28;20051;-85
2022/12/01 09:22:50;;;;;;;155.45;58.83;;;2.40;99.90;;;0.64;100.00;102660.50;5046944;28;20041;-85
2022/12/01 09:25:19;;;;;;;155.52;56.53;;;2.40;99.90;;;0.68;100.00;102665.78;5046592;28;20024;-86
2022/12/01 09:27:56;;;;;;;141.27;51.13;;;2.40;99.90;;;0.64;100.00;102670.88;5045317;28;20042;-84
2022/12/01 09:30:22;;;;;;;154.55;57.33;;;2.40;99.90;;;0.72;100.00;102678.00;5046708;28;20159;-84
2022/12/01 09:32:50;;;;;;;151.90;57.17;;;2.40;99.90;;;0.67;100.00;102669.25;5044063;28;20057;-86
2022/12/01 09:35:58;;;;;;;138.45;54.88;;;2.40;99.90;;;0.60;100.00;102673.41;5024658;28;20382;-86
2022/12/01 09:38:11;;;;;;;144.13;56.45;;;2.40;99.90;;;0.66;100.00;102676.97;5045627;28;20059;-85
2022/12/01 09:40:50;;;;;;;137.40;52.95;;;;;;;0.57;100.00;102678.47;5042860;28;20030;-85
2022/12/01 09:43:31;;;;;;;136.23;54.40;;;;;;;0.68;100.00;102685.66;5044109;28;20048;-86
2022/12/01 09:46:24;;;;;;;134.18;54.92;;;2.40;99.90;;;0.73;100.00;102681.47;5051302;28;20029;-85
2022/12/01 09:48:59;;;;;;;123.47;49.90;;;2.30;99.90;;;0.48;100.00;102679.97;5035632;28;20043;-85
2022/12/01 09:51:29;;;;;;;103.63;41.10;;;;;;;0.52;100.00;102674.00;5030172;28;20152;-86
2022/12/01 09:54:10;;;;;;;117.18;48.40;;;2.40;99.90;;;0.71;100.00;102672.75;5048064;28;20032;-85
2022/12/01 09:56:52;;;;;;;105.20;45.08;;;2.40;99.90;;;0.72;100.00;102666.75;5043362;28;20033;-85
2022/12/01 09:59:42;;;;;;;75.55;31.13;;;;;;;0.77;99.57;102666.00;5035255;28;20033;-87
2022/12/01 10:03:00;;;;;;;97.40;44.88;;;2.50;99.90;;;0.78;99.03;102672.09;5029742;28;20050;-87
2022/12/01 10:06:29;;;;;;;94.57;44.20;;;2.60;99.90;;;0.88;98.18;102671.47;4955266;28;20085;-87
2022/12/01 10:10:09;;;;;;;77.95;37.40;;;2.60;99.90;;;0.80;96.49;102665.25;5031006;28;20029;-87
2022/12/01 10:12:50;;;;;;;81.65;39.00;;;2.60;99.90;;;0.82;95.58;102656.66;5003871;28;20037;-87
2022/12/01 10:15:58;;;;;;;80.38;37.47;;;2.60;99.90;;;0.90;95.25;102658.53;5018547;28;20025;-87
2022/12/01 10:19:28;;;;;;;71.43;30.08;;;2.50;99.90;;;0.63;94.87;102650.94;5038148;28;20465;-86
2022/12/01 10:22:19;;;;;;;90.63;41.90;;;;;;;0.75;94.92;102659.03;5074324;23;20041;-87
2022/12/01 10:25:50;;;;;;;77.88;39.50;;;2.40;99.90;;;0.71;94.49;102654.63;5030781;28;20033;-87
2022/12/01 10:36:21;;;;;;;81.93;39.45;;;2.40;99.90;;;0.65;93.56;102638.91;4932304;28;20045;-87
2022/12/01 10:39:09;;;;;;;81.57;38.85;;;2.40;99.90;;;0.73;93.86;102650.34;5012579;28;20044;-87
2022/12/01 10:44:47;;;;;;;;;;;;;;;;;;;;;
2022/12/01 10:47:32;;;;;;;76.78;38.92;;;;;;;0.74;93.99;102644.34;5014182;28;20033;-87
2022/12/01 10:51:11;;;;;;;84.22;42.25;;;2.50;99.90;;;0.74;93.70;102646.94;5045555;28;20025;-87
2022/12/01 10:53:39;;;;;;;79.18;40.97;;;2.50;99.90;;;0.88;93.53;102640.34;5024154;28;20045;-86
2022/12/01 11:05:03;;;;;;;84.30;42.00;;;2.70;99.90;;;0.93;92.71;102641.34;4878045;29;20752;-88
2022/12/01 11:19:41;;;;;;;75.80;38.97;;;2.90;99.90;;;1.25;90.80;102628.22;4874806;29;20413;-88